Home > Products > Valid Products > TAF

000
FTUS45 KABQ 182300 AAA
TAFGUP
TAF AMD
KGUP 182341Z 1900/1924 25005KT P6SM VCSH SCT025 OVC050
      TEMPO 1900/1903 33012KT 2SM -SN BR BKN030
     FM190300 VRB03KT P6SM BKN050
     FM190600 VRB03KT 2SM BR SCT005 SCT050
      TEMPO 1910/1914 1/4SM FG VV001
     FM191600 VRB03KT P6SM FEW030 SCT150=



000
FTUS45 KABQ 182300
TAFGUP
TAF
KGUP 182335Z 1900/1924 25005KT P6SM VCSH SCT025 OVC050
     FM190300 VRB03KT P6SM BKN050
     FM190600 VRB03KT 2SM BR SCT005 SCT050
      TEMPO 1910/1914 1/4SM FG VV001
     FM191600 VRB03KT P6SM FEW030 SCT150=



000
FTUS45 KABQ 182300
TAFROW
TAF
KROW 182335Z 1900/1924 14006KT P6SM SCT040 OVC070
      TEMPO 1901/1903 -SHRA BKN035
     FM190300 29005KT P6SM -RA BKN025 OVC040
     FM190800 33007KT P6SM VCSH BKN050
     FM191200 30006KT P6SM FEW003 SCT060 SCT150
     FM191600 25005KT P6SM SKC=



000
FTUS45 KABQ 182300
TAFLVS
TAF
KLVS 182335Z 1900/1924 19007KT P6SM BKN070 BKN120
     FM190200 VRB05KT P6SM OVC060
     FM190900 36005KT P6SM SCT120
     FM191400 32006KT P6SM SKC=



000
FTUS45 KABQ 182300
TAFTCC
TAF
KTCC 182335Z 1900/1924 07005KT P6SM BKN080 OVC120
     FM190200 34005KT P6SM SCT002 BKN060
     FM190900 01005KT 1/2SM FG OVC002
     FM191500 28005KT P6SM SCT150=



000
FTUS45 KABQ 182300
TAFFMN
TAF
KFMN 182335Z 1900/1924 29006KT P6SM VCSH SCT025 OVC050
     FM190200 32005KT P6SM BKN070
     FM190600 VRB03KT 1SM BR SCT005 BKN010
     FM191100 VRB03KT 1/4SM FG VV004
     FM191600 28005KT P6SM SCT150=



000
FTUS45 KABQ 182300
TAFSAF
TAF
KSAF 182335Z 1900/1924 32006KT P6SM VCSH BKN050 OVC070
     FM190300 36005KT P6SM BKN070
     FM191000 36005KT P6SM VCFG FEW005 SCT100
     FM191600 34008KT P6SM SKC=



000
FTUS45 KABQ 182300
TAFABQ
TAF
KABQ 182335Z 1900/1924 34005KT P6SM VCSH SCT040 OVC070
     FM190200 36005KT P6SM VCSH BKN030
     FM190900 33005KT P6SM SCT004 SCT100
     FM191600 32007KT P6SM FEW150=



000
FTUS45 KABQ 181800 AAA
TAFTCC
TAF AMD
KTCC 181859Z 1819/1918 VRB04KT P6SM SCT010
     FM182000 09005KT P6SM SCT100
     FM182200 10005KT P6SM BKN080
     FM190200 34005KT P6SM VCFG SCT002 BKN100
     FM190500 01005KT 1/2SM FG OVC002=



000
FTUS45 KABQ 181700
TAFTCC
TAF
KTCC 181730Z 1818/1918 06005KT 3SM BR OVC002
     FM182000 09005KT P6SM BKN007
     FM182200 10005KT P6SM BKN070
     FM190200 34005KT P6SM VCFG SCT002 BKN100
     FM190500 01005KT 1/2SM FG OVC002=



000
FTUS45 KABQ 181700
TAFGUP
TAF
KGUP 181730Z 1818/1918 17005KT P6SM VCSH BKN025 OVC040
      TEMPO 1819/1823 2SM -SHSN OVC008
     FM182300 32005KT P6SM VCSH BKN030 OVC050
     FM190600 VRB03KT 1SM BR SCT100
      TEMPO 1910/1914 1/4SM FG VV001=



000
FTUS45 KABQ 181700
TAFSAF
TAF
KSAF 181730Z 1818/1918 25006KT P6SM FEW040 BKN070 OVC150
     FM182000 25009KT P6SM BKN060
     FM191000 35005KT P6SM VCFG SCT004 SCT060
     FM191500 36008KT P6SM SCT250=



000
FTUS45 KABQ 181700
TAFABQ
TAF
KABQ 181730Z 1818/1918 17005KT P6SM FEW040 BKN080 OVC150
     FM190100 VRB04KT P6SM VCSH OVC060
     FM191000 35005KT P6SM VCFG SCT004 SCT100
     FM191500 36006KT P6SM SCT250=



000
FTUS45 KABQ 181700
TAFROW
TAF
KROW 181730Z 1818/1918 VRB05KT P6SM BKN100
     FM190100 25005KT P6SM VCSH BKN070
     FM190400 29005KT P6SM -RA BKN025 OVC040
     FM191000 33007KT P6SM BKN080=



000
FTUS45 KABQ 181700
TAFFMN
TAF
KFMN 181730Z 1818/1918 VRB05KT P6SM BKN012 OVC040
     FM182100 29006KT P6SM VCSH OVC050
     FM190100 VRB04KT P6SM BKN080
     FM190600 VRB04KT 1SM BR SCT005 OVC010=



000
FTUS45 KABQ 181700
TAFLVS
TAF
KLVS 181730Z 1818/1918 32005KT P6SM BKN200
     FM182000 20011KT P6SM SCT070 BKN150
     FM190200 VRB05KT P6SM BKN060
     FM190800 36005KT P6SM SCT120
     FM191400 02006KT P6SM SKC=



000
FTUS45 KABQ 181400 AAA
TAFGUP
TAF AMD
KGUP 181453Z 1815/1912 VRB04KT P6SM SCT025 BKN060
      TEMPO 1815/1818 BKN025
     FM182000 25008KT P6SM VCSH BKN040
     FM190100 VRB03KT P6SM SKC=



000
FTUS45 KABQ 181400 AAA
TAFTCC
TAF AMD
KTCC 181445Z 1815/1912 05005KT 2SM BR BKN009
      TEMPO 1815/1817 1/4SM FZFG OVC002
     FM181800 10005KT P6SM SCT012
     FM182200 10005KT P6SM BKN070
     FM191100 01005KT P6SM VCFG SCT002=



000
FTUS45 KABQ 181400 AAA
TAFFMN
TAF AMD
KFMN 181436Z 1815/1912 13005KT P6SM SCT040
      TEMPO 1815/1817 4SM BR BKN040
     FM181700 VRB05KT P6SM SCT050 BKN070
     FM182100 29008KT P6SM SCT050 BKN080
     FM190100 VRB04KT P6SM SKC
     FM190600 VRB04KT 1SM BR SCT005 OVC010=



000
FTUS45 KABQ 181100
TAFABQ
TAF
KABQ 181124Z 1812/1912 VRB04KT P6SM SCT050
     FM181800 30005KT P6SM BKN060
     FM190300 VRB04KT P6SM SCT070
     FM191000 35005KT P6SM VCFG SCT004=



000
FTUS45 KABQ 181100
TAFTCC
TAF
KTCC 181124Z 1812/1912 VRB05KT 2SM BR BKN007
      TEMPO 1812/1815 1/4SM FZFG OVC002
     FM181700 VRB05KT P6SM SKC
     FM182200 VRB05KT P6SM BKN070
     FM191100 01005KT P6SM VCFG SCT002=



000
FTUS45 KABQ 181100
TAFSAF
TAF
KSAF 181124Z 1812/1912 VRB04KT P6SM SCT040
     FM181700 35009KT P6SM FEW040 BKN060
     FM182000 25009KT P6SM BKN050
     FM190100 VRB05KT P6SM SCT070
     FM191000 35005KT P6SM VCFG SCT004=



000
FTUS45 KABQ 181100
TAFFMN
TAF
KFMN 181124Z 1812/1912 VRB04KT P6SM SCT050
      TEMPO 1812/1815 3SM BR BKN015
     FM181700 VRB05KT P6SM SCT050 BKN070
     FM182100 29008KT P6SM SCT050 BKN080
     FM190100 VRB04KT P6SM SKC
     FM190600 VRB04KT 1SM BR SCT005 OVC010=



000
FTUS45 KABQ 181100
TAFROW
TAF
KROW 181124Z 1812/1912 VRB05KT P6SM SCT120
     FM190200 33005KT P6SM BKN070
     FM190600 33005KT P6SM -RA SCT025 BKN040=



000
FTUS45 KABQ 181100
TAFLVS
TAF
KLVS 181124Z 1812/1912 VRB05KT P6SM SKC
     FM182000 20011KT P6SM SCT070
     FM190200 VRB05KT P6SM BKN060
     FM190800 36005KT P6SM SKC=



000
FTUS45 KABQ 181100
TAFGUP
TAF
KGUP 181124Z 1812/1912 VRB04KT P6SM BKN015
     FM181600 23004KT P6SM FEW025 BKN040
     FM182000 25008KT P6SM VCSH BKN040
     FM190100 VRB03KT P6SM SKC=



000
FTUS45 KABQ 181000 AAA
TAFABQ
TAF AMD
KABQ 181009Z 1810/1906 VRB04KT P6SM SCT050
     FM181800 30005KT P6SM BKN060
     FM190300 VRB04KT P6SM SCT070=



000
FTUS45 KABQ 180800 AAB
TAFSAF
TAF AMD
KSAF 180815Z 1808/1906 25006KT P6SM VCFG SCT004
     FM181300 35007KT P6SM SCT015
      TEMPO 1813/1815 1/2SM FZFG OVC002
     FM181700 35009KT P6SM FEW035 BKN060
     FM182000 25009KT P6SM BKN050
     FM190100 VRB05KT P6SM SCT050 BKN070=



000
FTUS45 KABQ 180800 AAB
TAFSAF
TAF AMD
KSAF 180815Z 1808/1906 25006KT P6SM VCFG SCT004
     FM181300 35007KT P6SM SCT015
      TEMPO 1813/1815 1/2SM FZFG OVC002
     FM181700 35009KT P6SM FEW035 BKN060
     FM182000 25009KT P6SM BKN050
     FM190100 VRB05KT P6SM SCT050 BKN070=



000
FTUS45 KABQ 180800 AAB
TAFGUP
TAF AMD
KGUP 180800Z 1808/1906 VRB04KT P6SM SCT007 BKN050
      TEMPO 1808/1812 2SM BR BKN015
     FM181200 VRB04KT 4SM BR BKN015
      TEMPO 1812/1815 3/4SM BR OVC004
     FM181600 23004KT P6SM SCT025 BKN040
     FM182000 25008KT P6SM VCSH BKN040
     FM190100 VRB03KT P6SM SKC=



000
FTUS45 KABQ 180800 AAB
TAFGUP
TAF AMD
KGUP 180800Z 1808/1906 VRB04KT P6SM SCT007 BKN050
      TEMPO 1808/1812 2SM BR BKN015
     FM181200 VRB04KT 4SM BR BKN015
      TEMPO 1812/1815 3/4SM BR OVC004
     FM181600 23004KT P6SM SCT025 BKN040
     FM182000 25008KT P6SM VCSH BKN040
     FM190100 VRB03KT P6SM SKC=



000
FTUS45 KABQ 180700 AAA
TAFFMN
TAF AMD
KFMN 180755Z 1808/1906 VRB04KT P6SM OVC018
      TEMPO 1812/1815 1SM BR OVC006
     FM181700 VRB05KT P6SM SCT040 BKN070
     FM182100 29008KT P6SM SCT050 BKN080
     FM190100 VRB04KT P6SM SKC=



000
FTUS45 KABQ 180700 AAA
TAFFMN
TAF AMD
KFMN 180755Z 1808/1906 VRB04KT P6SM OVC018
      TEMPO 1812/1815 1SM BR OVC006
     FM181700 VRB05KT P6SM SCT040 BKN070
     FM182100 29008KT P6SM SCT050 BKN080
     FM190100 VRB04KT P6SM SKC=



000
FTUS45 KABQ 180600 AAA
TAFGUP
TAF AMD
KGUP 180656Z 1807/1906 21005KT P6SM BKN025 OVC050
      TEMPO 1807/1811 1 1/2SM -SN BR OVC008
     FM181100 VRB04KT 4SM BR BKN015
      TEMPO 1811/1815 3/4SM BR OVC004
     FM181600 23004KT P6SM BKN020
     FM182000 26005KT P6SM VCSH BKN050=



000
FTUS45 KABQ 180600 AAA
TAFSAF
TAF AMD
KSAF 180656Z 1807/1906 26006KT 5SM BR BKN006
      TEMPO 1807/1810 VRB05KT 1/4SM FZFG VV001
     FM181000 34007KT 5SM BR BKN015
      TEMPO 1810/1814 VRB05KT 1/2SM FZFG OVC008
     FM181500 35008KT P6SM BKN035
     FM182000 28009KT P6SM VCSH BKN050=



000
FTUS45 KABQ 180500
TAFTCC
TAF
KTCC 180540Z 1806/1906 28011KT P6SM BKN140
     FM181100 03005KT P6SM SCT009 SCT140
      TEMPO 1811/1815 2SM BR BKN010
     FM182000 11006KT P6SM BKN100=



000
FTUS45 KABQ 180500
TAFLVS
TAF
KLVS 180540Z 1806/1906 23009KT P6SM SCT100 BKN150
     FM181100 32006KT P6SM SCT040 SCT140
     FM181500 35006KT P6SM FEW040 SCT120
     FM182000 18011KT P6SM SCT070 BKN120
     FM190200 VRB06KT P6SM SCT060 BKN120=



000
FTUS45 KABQ 180500
TAFFMN
TAF
KFMN 180540Z 1806/1906 27005KT P6SM VCSH OVC025
      TEMPO 1807/1811 2SM -SHRASN BR OVC008
     FM181100 VRB05KT 5SM BR VCSH BKN020
      TEMPO 1811/1815 1SM BR OVC008
     FM182100 29007KT P6SM SCT030 BKN050=



000
FTUS45 KABQ 180500
TAFABQ
TAF
KABQ 180540Z 1806/1906 VRB05KT P6SM SCT025 OVC050
     FM181000 VRB04KT P6SM VCFG SCT025 BKN045
      TEMPO 1810/1814 4SM BR BKN015
     FM181700 30004KT P6SM BKN050=



000
FTUS45 KABQ 180500
TAFROW
TAF
KROW 180540Z 1806/1906 VRB05KT P6SM BKN120
     FM181200 30004KT P6SM BKN120=



000
FTUS45 KABQ 180500
TAFGUP
TAF
KGUP 180540Z 1806/1906 21005KT P6SM SCT025 BKN050
      TEMPO 1807/1811 3SM -SN BR OVC012
     FM181100 VRB04KT 4SM BR BKN015
      TEMPO 1811/1815 3/4SM BR OVC004
     FM181600 23004KT P6SM BKN020
     FM182000 26005KT P6SM VCSH BKN050=



000
FTUS45 KABQ 180500
TAFSAF
TAF
KSAF 180540Z 1806/1906 26006KT 3SM BR OVC006
      TEMPO 1806/1810 VRB05KT 1/4SM FZFG VV001
     FM181000 34007KT 5SM BR BKN015
      TEMPO 1810/1814 VRB05KT 1/2SM FZFG OVC008
     FM181500 35008KT P6SM BKN035
     FM182000 28009KT P6SM VCSH BKN050=



000
FTUS45 KABQ 180200 AAA
TAFROW
TAF AMD
KROW 180234Z 1803/1824 24009KT P6SM BKN100
     FM180300 25008KT P6SM BKN120
     FM181200 30004KT P6SM BKN120=



000
FTUS45 KABQ 180200 AAA
TAFTCC
TAF AMD
KTCC 180233Z 1803/1824 26010KT P6SM SCT100 BKN150
     FM180500 27012KT P6SM BKN100
     FM180900 03005KT P6SM SCT009
      TEMPO 1811/1815 2SM BR BKN007
     FM182000 11006KT P6SM BKN100=



000
FTUS45 KABQ 180200 AAB
TAFSAF
TAF AMD
KSAF 180217Z 1802/1824 24008KT 3SM BR OVC006
      TEMPO 1802/1806 1/4SM FG VV001
     FM180600 30006KT 5SM BR OVC012
     FM181100 34007KT 5SM BR BKN025
      TEMPO 1811/1815 1SM BR OVC008
     FM181500 35011KT P6SM BKN035
     FM182000 30009KT P6SM VCSH BKN050=



000
FTUS45 KABQ 180100 AAA
TAFGUP
TAF AMD
KGUP 180107Z 1801/1824 23008KT P6SM SCT020 BKN050
      TEMPO 1802/1805 3SM -SN BR OVC012
     FM180700 VRB04KT 4SM BR BKN015
      TEMPO 1810/1814 1SM BR OVC004
     FM181600 23004KT P6SM OVC025
     FM182000 26005KT P6SM VCSH OVC050=



000
FTUS45 KABQ 180100 AAA
TAFSAF
TAF AMD
KSAF 180107Z 1801/1824 24008KT 5SM BR OVC008
      TEMPO 1802/1805 3/4SM BR VV001
     FM180500 30006KT P6SM VCFG OVC012
     FM181100 34007KT 5SM BR BKN025
      TEMPO 1811/1815 1SM BR OVC008
     FM181500 35011KT P6SM BKN035
     FM182000 30009KT P6SM VCSH BKN050=



000
FTUS45 KABQ 172300
TAFROW
TAF
KROW 172340Z 1800/1824 24011G19KT P6SM BKN100
     FM180300 25008KT P6SM BKN120
     FM181200 30004KT P6SM BKN120=



000
FTUS45 KABQ 172300
TAFABQ
TAF
KABQ 172340Z 1800/1824 23005KT P6SM VCSH FEW020 OVC070
      TEMPO 1800/1803 4SM -RA BR OVC020
     FM180300 29006KT P6SM SCT025 OVC050
     FM181100 VRB03KT P6SM VCFG BKN040
     FM181600 30004KT P6SM BKN050=



000
FTUS45 KABQ 172300
TAFTCC
TAF
KTCC 172340Z 1800/1824 25012G21KT P6SM VCSH BKN070
     FM180300 27012KT P6SM BKN100
     FM181200 03005KT P6SM SCT009
      TEMPO 1812/1815 2SM BR BKN007
     FM182000 11006KT P6SM BKN100=



000
FTUS45 KABQ 172300
TAFSAF
TAF
KSAF 172340Z 1800/1824 24008KT 4SM BR OVC008
      TEMPO 1800/1803 3/4SM BR VV001
     FM180300 30006KT P6SM VCFG OVC012
     FM181100 34007KT 5SM BR BKN025
      TEMPO 1811/1815 1SM BR OVC008
     FM181500 35011KT P6SM BKN035
     FM182000 30009KT P6SM VCSH BKN050=



000
FTUS45 KABQ 172300
TAFGUP
TAF
KGUP 172340Z 1800/1824 23008KT P6SM BKN020 OVC060
      TEMPO 1800/1804 3SM -SN BR OVC012
     FM180700 VRB04KT 4SM BR OVC007
      TEMPO 1810/1814 1SM BR OVC004
     FM181600 23004KT P6SM OVC025
     FM182000 26005KT P6SM VCSH OVC050=



000
FTUS45 KABQ 172300
TAFFMN
TAF
KFMN 172340Z 1800/1824 28009KT P6SM -RA OVC025
      TEMPO 1800/1804 4SM -RASN BR OVC012
     FM180400 27004KT 5SM BR OVC035
      TEMPO 1810/1814 2SM BR OVC018
     FM182100 28008KT P6SM BKN100=



000
FTUS45 KABQ 172300
TAFLVS
TAF
KLVS 172340Z 1800/1824 23016G26KT P6SM VCSH OVC100
     FM180300 25010KT P6SM OVC080
     FM181100 32007KT P6SM BKN080
     FM181500 01006KT P6SM BKN080
     FM182000 17008KT P6SM BKN090=



000
FTUS45 KABQ 172200 AAA
TAFGUP
TAF AMD
KGUP 172239Z 1723/1818 25012KT P6SM SCT023 BKN050
      TEMPO 1723/1802 3SM -SN OVC012
     FM180200 23005KT 3SM -SN OVC012
     FM181000 VRB03KT 2SM BR OVC007
     FM181600 23004KT P6SM OVC025=



000
FTUS45 KABQ 172200 AAB
TAFSAF
TAF AMD
KSAF 172238Z 1723/1818 23008KT 3/4SM BR OVC001
     FM180000 24009KT 4SM BR OVC007
     FM180200 29006KT P6SM OVC025
     FM181100 35007KT P6SM OVC025
     FM181500 35012KT P6SM BKN035=



000
FTUS45 KABQ 172100 AAA
TAFABQ
TAF AMD
KABQ 172125Z 1721/1818 17004KT P6SM VCSH SCT040 OVC100
      TEMPO 1722/1802 5SM -RA OVC025
     FM180300 29006KT P6SM OVC050=



000
FTUS45 KABQ 171800 AAA
TAFSAF
TAF AMD
KSAF 171853Z 1719/1818 22008KT P6SM OVC025
      TEMPO 1719/1723 2SM -SN OVC006
     FM180200 29006KT P6SM OVC040
     FM181100 35007KT P6SM OVC025
     FM181500 35012KT P6SM BKN035=



000
FTUS45 KABQ 171700
TAFFMN
TAF
KFMN 171740Z 1718/1818 26005KT P6SM OVC080
      TEMPO 1720/1724 5SM -SHSN OVC030
     FM180000 VRB03KT P6SM OVC050=



000
FTUS45 KABQ 171700
TAFLVS
TAF
KLVS 171740Z 1718/1818 23014G24KT P6SM VCSH OVC070
     FM180300 24009KT P6SM OVC060
     FM181100 32007KT P6SM BKN070
     FM181500 35007KT P6SM BKN080=



000
FTUS45 KABQ 171700
TAFSAF
TAF
KSAF 171740Z 1718/1818 23008KT P6SM OVC025
      TEMPO 1718/1722 2SM -SN OVC015
     FM180200 29006KT P6SM OVC040
     FM181100 35007KT P6SM OVC025
     FM181500 35012KT P6SM BKN035=



000
FTUS45 KABQ 171700
TAFABQ
TAF
KABQ 171740Z 1718/1818 24008KT P6SM VCSH OVC040
     FM180300 29006KT P6SM OVC050=



000
FTUS45 KABQ 171700
TAFROW
TAF
KROW 171740Z 1718/1818 19006KT P6SM SCT120
     FM172000 23013G21KT P6SM SCT120
     FM180200 25007KT P6SM BKN120
     FM181200 30004KT P6SM BKN120=



000
FTUS45 KABQ 171700
TAFGUP
TAF
KGUP 171740Z 1718/1818 23008KT P6SM OVC025
      TEMPO 1720/1724 3SM -SN OVC012
     FM180200 23005KT 3SM -SN OVC012
     FM181000 VRB03KT 2SM BR OVC007
     FM181600 23004KT P6SM OVC025=



000
FTUS45 KABQ 171700
TAFTCC
TAF
KTCC 171740Z 1718/1818 23014G22KT P6SM VCSH BKN100
     FM180300 26012KT P6SM BKN120
     FM181100 03005KT P6SM SCT009
      TEMPO 1812/1815 2SM BR=



000
FTUS45 KABQ 171600 AAC
TAFABQ
TAF AMD
KABQ 171609Z 1716/1812 30003KT 3SM BR SCT002 OVC025
     FM171700 22006KT P6SM BKN035
     FM172000 22008KT P6SM VCSH BKN040 OVC060
     FM180300 25005KT P6SM SCT040 BKN070=



000
FTUS45 KABQ 171500 AAB
TAFABQ
TAF AMD
KABQ 171524Z 1715/1812 31004KT 1/4SM FG VCSH VV003
     FM171630 VRB03KT 4SM -SN OVC020
     FM171700 23006KT P6SM OVC035
     FM172000 22008KT P6SM VCSH BKN040 OVC060
     FM180300 25005KT P6SM SCT040 BKN070=



000
FTUS45 KABQ 171500 AAB
TAFSAF
TAF AMD
KSAF 171518Z 1715/1812 13003KT 1/2SM SN FZFG SCT004 OVC012
     FM171700 21007KT 5SM -SN OVC025
     FM172000 25011KT P6SM VCSH OVC035
      TEMPO 1720/1724 3SM -SHSNRA OVC025
     FM180300 29008KT P6SM VCSH BKN035
     FM180700 35006KT P6SM SCT035 BKN050=



000
FTUS45 KABQ 171500 AAA
TAFGUP
TAF AMD
KGUP 171516Z 1715/1812 00000KT 3SM -SN BKN015 OVC022
      TEMPO 1715/1719 3/4SM -SN OVC007
     FM172000 23013KT P6SM VCSH OVC025
     FM180200 24007KT P6SM VCSH OVC018
     FM180900 22004KT 1SM BR OVC006=



000
FTUS45 KABQ 171400 AAA
TAFSAF
TAF AMD
KSAF 171418Z 1714/1812 VRB05KT P6SM VCSH BKN050
      TEMPO 1714/1717 2SM -SHSN OVC020
     FM172000 25011KT P6SM VCSH OVC035
      TEMPO 1720/1724 3SM -SHSNRA OVC025
     FM180300 29008KT P6SM VCSH BKN035
     FM180700 35006KT P6SM SCT035 BKN050=



000
FTUS45 KABQ 171300 AAA
TAFABQ
TAF AMD
KABQ 171321Z 1713/1812 VRB04KT P6SM VCSH SCT040 OVC070
      TEMPO 1713/1716 4SM -SHSNRA OVC020
     FM172000 22008KT P6SM VCSH BKN040 OVC060
      TEMPO 1720/1723 -SHRA OVC030
     FM180300 25005KT P6SM SCT040 BKN070=



000
FTUS45 KABQ 171100 RRA
TAFSAF
TAF
KSAF 171143Z 1712/1812 VRB05KT P6SM VCSH BKN050
      TEMPO 1713/1716 4SM -SHSN OVC025
     FM172000 25011KT P6SM VCSH OVC035
      TEMPO 1720/1724 3SM -SHSNRA OVC025
     FM180300 29008KT P6SM VCSH BKN035
     FM180700 35006KT P6SM SCT035 BKN050=



000
FTUS45 KABQ 171100 RRA
TAFFMN
TAF
KFMN 171143Z 1712/1812 12008KT P6SM BKN080
     FM171500 12007KT P6SM VCSH SCT035 BKN050
     FM171800 12007KT 5SM -SNRA BR BKN030
     FM172200 26007KT 1SM -SN OVC010
     FM180100 25006KT P6SM VCSH BKN025 OVC040
     FM180900 VRB04KT 3/4SM BR OVC007=



000
FTUS45 KABQ 171100 RRA
TAFABQ
TAF
KABQ 171143Z 1712/1812 VRB04KT P6SM VCSH SCT040 OVC070
      TEMPO 1712/1716 -SHRA OVC030
     FM172000 22008KT P6SM VCSH BKN040 OVC060
      TEMPO 1720/1723 -SHRA OVC030
     FM180300 25005KT P6SM SCT040 BKN070=



000
FTUS45 KABQ 171100 RRA
TAFROW
TAF
KROW 171143Z 1712/1812 VRB04KT P6SM BKN200
      TEMPO 1712/1714 BKN020
     FM172000 23013G21KT P6SM SCT120
     FM180100 25007KT P6SM SCT100=



000
FTUS45 KABQ 171100 RRA
TAFLVS
TAF
KLVS 171143Z 1712/1812 19010KT P6SM SCT110 BKN200
     FM171900 22015G25KT P6SM BKN080
     FM180200 25011KT P6SM BKN070=



000
FTUS45 KABQ 171100 RRA
TAFGUP
TAF
KGUP 171143Z 1712/1812 VRB03KT P6SM VCSH BKN040
      TEMPO 1712/1716 2SM -SN OVC025
     FM171600 22008KT 3SM -SN OVC025
     FM172000 23013KT P6SM VCSH OVC025
     FM180200 24007KT P6SM VCSH OVC018
     FM180900 22004KT 1SM BR OVC006=



000
FTUS45 KABQ 171100 RRA
TAFTCC
TAF
KTCC 171143Z 1712/1812 21008KT P6SM BKN200
     FM171800 23013G23KT P6SM SCT120 BKN200
     FM180200 25012KT P6SM SCT110 BKN200=



000
FTUS45 KABQ 171000 AAA
TAFABQ
TAF AMD
KABQ 171058Z 1711/1806 VRB04KT P6SM VCSH SCT050 OVC070
      TEMPO 1711/1713 -SHRASN OVC040
     FM172000 22008KT P6SM VCSH BKN050 OVC070=



000
FTUS45 KABQ 171000 AAA
TAFTCC
TAF AMD
KTCC 171005Z 1710/1806 21008KT P6SM BKN200
     FM171800 23013G23KT P6SM SCT120 BKN200
     FM180200 25012KT P6SM SCT110 BKN200=



000
FTUS45 KABQ 171000 AAA
TAFTCC
TAF AMD
KTCC 171005Z 1710/1806 21008KT P6SM BKN200
     FM171800 23013G23KT P6SM SCT120 BKN200
     FM180200 25012KT P6SM SCT110 BKN200=



000
FTUS45 KABQ 171000 AAA
TAFROW
TAF AMD
KROW 171004Z 1710/1806 VRB04KT P6SM BKN200
     FM172000 23013G21KT P6SM SCT120
     FM180100 25007KT P6SM SCT100=



000
FTUS45 KABQ 171000 AAA
TAFROW
TAF AMD
KROW 171004Z 1710/1806 VRB04KT P6SM BKN200
     FM172000 23013G21KT P6SM SCT120
     FM180100 25007KT P6SM SCT100=



000
FTUS45 KABQ 170800 AAA
TAFFMN
TAF AMD
KFMN 170842Z 1709/1806 VRB04KT P6SM BKN090
     FM171500 12007KT P6SM VCSH SCT025 BKN050
     FM171800 VRB05KT 4SM -SNRA BR OVC025
     FM180000 25006KT P6SM VCSH BKN025 OVC040=



000
FTUS45 KABQ 170800 AAA
TAFFMN
TAF AMD
KFMN 170842Z 1709/1806 VRB04KT P6SM BKN090
     FM171500 12007KT P6SM VCSH SCT025 BKN050
     FM171800 VRB05KT 4SM -SNRA BR OVC025
     FM180000 25006KT P6SM VCSH BKN025 OVC040=



000
FTUS45 KABQ 170800 AAA
TAFGUP
TAF AMD
KGUP 170836Z 1709/1806 VRB06KT P6SM BKN080
     FM171200 VRB03KT 4SM -SN OVC025
      TEMPO 1713/1716 1SM -SN BR OVC010
     FM171600 22008KT P6SM VCSH SCT025 BKN040
     FM171900 23013KT P6SM VCSH OVC025
     FM180200 24007KT P6SM VCSH OVC018=



000
FTUS45 KABQ 170800 AAA
TAFGUP
TAF AMD
KGUP 170836Z 1709/1806 VRB06KT P6SM BKN080
     FM171200 VRB03KT 4SM -SN OVC025
      TEMPO 1713/1716 1SM -SN BR OVC010
     FM171600 22008KT P6SM VCSH SCT025 BKN040
     FM171900 23013KT P6SM VCSH OVC025
     FM180200 24007KT P6SM VCSH OVC018=



000
FTUS45 KABQ 170500
TAFABQ
TAF
KABQ 170540Z 1706/1806 01005KT P6SM SCT150 BKN200
     FM170830 VRB05KT P6SM OVC100
     FM171200 VRB04KT P6SM SCT050 OVC070
      TEMPO 1714/1718 5SM -SHRASN OVC035
     FM171800 21007KT P6SM VCSH OVC060
      TEMPO 1718/1722 5SM -SHRA OVC035=



000
FTUS45 KABQ 170500
TAFLVS
TAF
KLVS 170540Z 1706/1806 19010KT P6SM SCT150 BKN200
     FM171900 22015G25KT P6SM BKN080
     FM180200 25011KT P6SM VCSH BKN080=



000
FTUS45 KABQ 170500
TAFROW
TAF
KROW 170540Z 1706/1806 VRB04KT P6SM BKN200
     FM171000 14005KT P6SM OVC030
      TEMPO 1712/1716 OVC018
     FM171900 22011KT P6SM SCT035 BKN120=



000
FTUS45 KABQ 170500
TAFFMN
TAF
KFMN 170540Z 1706/1806 08007KT P6SM SCT070 BKN100
     FM171000 09006KT 5SM -SNRA OVC040
      TEMPO 1712/1716 1SM -SN OVC012
     FM171700 10005KT 3SM -SNRA BR OVC018
     FM172000 24006KT P6SM VCSH OVC025
     FM180200 VRB05KT P6SM VCSH OVC018=



000
FTUS45 KABQ 170500
TAFSAF
TAF
KSAF 170540Z 1706/1806 VRB05KT P6SM BKN140
     FM171100 VRB05KT P6SM OVC050
      TEMPO 1714/1718 2SM -SHSN OVC030
     FM171800 24011KT P6SM VCSH OVC040
      TEMPO 1718/1722 3SM -SHSNRA OVC030
     FM180200 29008KT P6SM VCSH OVC040=



000
FTUS45 KABQ 170500
TAFGUP
TAF
KGUP 170540Z 1706/1806 VRB06KT P6SM BKN100
     FM170730 VRB03KT P6SM OVC060
     FM170900 VRB03KT 4SM -SN OVC025
      TEMPO 1712/1716 3/4SM -SN BR OVC007
     FM171600 22009KT 4SM -SN BR OVC015
     FM171900 23011KT P6SM VCSH OVC025
     FM180200 24007KT P6SM VCSH OVC018=



000
FTUS45 KABQ 170500
TAFTCC
TAF
KTCC 170540Z 1706/1806 21008KT P6SM BKN200
      TEMPO 1711/1715 SCT030 OVC200
     FM171900 23015G23KT P6SM BKN100 BKN200
     FM180200 24011G17KT P6SM SCT100 BKN140=



000
FTUS45 KABQ 162300
TAFLVS
TAF
KLVS 162331Z 1700/1724 19010KT P6SM SCT100 BKN140
     FM171900 22015G25KT P6SM OVC080=



000
FTUS45 KABQ 162300
TAFROW
TAF
KROW 162331Z 1700/1724 18007KT P6SM SCT030 OVC200
     FM170300 16006KT P6SM OVC200
     FM170900 14005KT P6SM OVC025
      TEMPO 1712/1716 OVC012
     FM171900 22011KT P6SM BKN120=



000
FTUS45 KABQ 162300
TAFABQ
TAF
KABQ 162331Z 1700/1724 01005KT P6SM OVC120
     FM170800 VRB05KT P6SM OVC100
     FM171200 VRB04KT P6SM OVC050
      TEMPO 1714/1718 5SM -RASN OVC035
     FM171800 21007KT P6SM VCSH OVC050=



000
FTUS45 KABQ 162300
TAFFMN
TAF
KFMN 162331Z 1700/1724 08007KT P6SM BKN100
     FM171100 09006KT P6SM OVC040
      TEMPO 1712/1716 3SM -RASN OVC015
     FM171600 10005KT 4SM -SN OVC020
     FM172000 26006KT P6SM VCSH OVC025=



000
FTUS45 KABQ 162300
TAFTCC
TAF
KTCC 162331Z 1700/1724 21008KT P6SM OVC200
     FM171900 23014G22KT P6SM OVC100=



000
FTUS45 KABQ 162300
TAFSAF
TAF
KSAF 162331Z 1700/1724 15006KT P6SM BKN120
     FM170300 06005KT P6SM OVC100
     FM171200 VRB03KT P6SM OVC050
      TEMPO 1714/1718 4SM -SN OVC030
     FM171800 24011KT P6SM VCSH OVC040=



000
FTUS45 KABQ 162300
TAFGUP
TAF
KGUP 162331Z 1700/1724 16006KT P6SM BKN100
     FM170700 VRB03KT P6SM OVC060
     FM170900 VRB03KT 5SM -SN OVC025
      TEMPO 1712/1716 1SM -SN BR OVC007
     FM171600 22009KT 5SM -SN BR OVC015
     FM171900 23011KT P6SM VCSH OVC025=



000
FTUS45 KABQ 162100 AAB
TAFROW
TAF AMD
KROW 162125Z 1621/1718 19008KT P6SM OVC030
     FM162300 18008KT P6SM BKN200
     FM170300 17005KT P6SM OVC200
     FM171400 17006KT P6SM OVC100=



000
FTUS45 KABQ 161900 AAA
TAFROW
TAF AMD
KROW 161942Z 1620/1718 16009KT P6SM BKN200
      TEMPO 1620/1623 BKN035
     FM170300 17005KT P6SM OVC200
     FM171400 17006KT P6SM OVC100=



000
FTUS45 KABQ 161700
TAFABQ
TAF
KABQ 161725Z 1618/1718 11006KT P6SM OVC150
     FM170900 VRB03KT P6SM OVC100
     FM171400 VRB03KT P6SM OVC050
      TEMPO 1714/1718 6SM -RA OVC035=



000
FTUS45 KABQ 161700
TAFSAF
TAF
KSAF 161725Z 1618/1718 05008KT P6SM OVC150
     FM162000 18007KT P6SM OVC120
     FM170200 05005KT P6SM OVC100
     FM171200 VRB03KT P6SM OVC050
      TEMPO 1715/1718 5SM -RASN OVC030=



000
FTUS45 KABQ 161700
TAFFMN
TAF
KFMN 161725Z 1618/1718 12008KT P6SM OVC150
     FM170200 09007KT P6SM OVC100
     FM171200 09006KT P6SM OVC040
      TEMPO 1714/1718 3SM -RASN OVC015=



000
FTUS45 KABQ 161700
TAFLVS
TAF
KLVS 161725Z 1618/1718 19014KT P6SM BKN150
     FM170200 20009KT P6SM OVC120
     FM171400 20011KT P6SM OVC070=



000
FTUS45 KABQ 161700
TAFTCC
TAF
KTCC 161725Z 1618/1718 21012KT P6SM OVC200
     FM170300 21008KT P6SM OVC150
     FM171300 20007KT P6SM OVC100=



000
FTUS45 KABQ 161700
TAFGUP
TAF
KGUP 161725Z 1618/1718 19009KT P6SM BKN120
     FM170100 15005KT P6SM OVC100
     FM171000 VRB03KT P6SM OVC050
      TEMPO 1710/1714 4SM -SN OVC015
     FM171400 23007KT 2SM -SN OVC009=



000
FTUS45 KABQ 161700
TAFROW
TAF
KROW 161725Z 1618/1718 14009KT P6SM BKN200
     FM170300 17005KT P6SM OVC200
     FM171400 17006KT P6SM OVC100=



000
FTUS45 KABQ 161100
TAFROW
TAF
KROW 161127Z 1612/1712 VRB05KT P6SM BKN200
     FM161900 15008KT P6SM BKN200
     FM170300 VRB05KT P6SM SCT200=



000
FTUS45 KABQ 161100
TAFFMN
TAF
KFMN 161127Z 1612/1712 09009KT P6SM BKN200
     FM170200 09007KT P6SM BKN100
     FM171000 09007KT P6SM BKN050=



000
FTUS45 KABQ 161100
TAFABQ
TAF
KABQ 161127Z 1612/1712 09010KT P6SM SCT140 BKN200
     FM161700 04007KT P6SM SCT140 BKN200
     FM170100 08006KT P6SM BKN120
     FM171000 VRB05KT P6SM BKN080=



000
FTUS45 KABQ 161100
TAFSAF
TAF
KSAF 161127Z 1612/1712 03011KT P6SM SCT120 BKN200
     FM161900 16011KT P6SM BKN120
     FM170200 VRB05KT P6SM BKN110=



000
FTUS45 KABQ 161100
TAFGUP
TAF
KGUP 161127Z 1612/1712 VRB05KT P6SM SCT120 BKN200
     FM162000 21011KT P6SM BKN120
     FM170100 15004KT P6SM BKN090
     FM171000 VRB04KT P6SM VCSH BKN040=



000
FTUS45 KABQ 161100
TAFTCC
TAF
KTCC 161127Z 1612/1712 VRB05KT P6SM BKN200
     FM161800 21011KT P6SM BKN200
     FM162000 21013G23KT P6SM BKN200
     FM170000 21007KT P6SM SCT200=



000
FTUS45 KABQ 161100
TAFLVS
TAF
KLVS 161127Z 1612/1712 19013KT P6SM BKN200
     FM161800 20016G26KT P6SM BKN150
     FM170100 20009KT P6SM BKN150=



000
FTUS45 KABQ 160500
TAFROW
TAF
KROW 160526Z 1606/1706 36007KT P6SM BKN200
     FM161900 15008KT P6SM BKN200=



000
FTUS45 KABQ 160500
TAFFMN
TAF
KFMN 160526Z 1606/1706 09009KT P6SM BKN100=



000
FTUS45 KABQ 160500
TAFLVS
TAF
KLVS 160526Z 1606/1706 16007KT P6SM BKN200
     FM161700 20014G24KT P6SM BKN150
     FM170100 20009KT P6SM BKN150=



000
FTUS45 KABQ 160500
TAFABQ
TAF
KABQ 160526Z 1606/1706 08010KT P6SM BKN150
      TEMPO 1612/1616 08010G20KT
     FM162000 13006KT P6SM BKN150
     FM170100 08006KT P6SM BKN120=



000
FTUS45 KABQ 160500
TAFSAF
TAF
KSAF 160526Z 1606/1706 04009KT P6SM BKN150
     FM161800 16009KT P6SM BKN120
     FM170200 06006KT P6SM BKN100=



000
FTUS45 KABQ 160500
TAFTCC
TAF
KTCC 160526Z 1606/1706 03009KT P6SM BKN200
     FM161200 VRB06KT P6SM OVC200
     FM161700 21011KT P6SM OVC200
     FM161900 21013G23KT P6SM SCT150
     FM170000 21007KT P6SM BKN200=



000
FTUS45 KABQ 160500
TAFGUP
TAF
KGUP 160526Z 1606/1706 06004KT P6SM BKN150
     FM161700 21009KT P6SM BKN120
     FM170100 15005KT P6SM SCT060 BKN100=



    US Dept of Commerce
    National Oceanic and Atmospheric Administration
    National Weather Service
    1325 East West Highway
    Silver Spring, MD 20910
    Page Author: NWS Internet Services Team
Disclaimer
Information Quality
Credits
Glossary
Privacy Policy
Freedom of Information Act (FOIA)
About Us
Career Opportunities